< < Back
Terminal Aerodrome Forecast


Current Version              Previous Versions:   1  2  3  4  5  6  7  8  9  

Terminal Aerodrome Forecast

398
FTUS44 KHUN 190526
TAFHSV
TAF
KHSV 190526Z 1906/2006 03002KT P6SM SCT050 BKN250
     FM190800 00000KT 5SM BR SCT250
     FM191300 12004KT P6SM SCT040=



Latest METAR

562
SAUS80 KWBC 191800 RRD
MTRHSV
METAR KHSV 191753Z 08006KT 10SM FEW040 SCT200 30/18 A3004 RMK AO2 SLP166
T03000183 10300 20189 58006


USA.gov is the U.S. government's official web portal to all federal, state and local government web resources and services.